createdAt,value
2022-10-17T00:00:34.414Z,0
2022-10-17T00:01:34.703Z,0
2022-10-17T00:02:34.150Z,0
2022-10-17T00:03:34.695Z,0
2022-10-17T00:05:34.400Z,0
2022-10-17T00:06:33.857Z,0
2022-10-17T00:07:35.059Z,0
2022-10-17T00:08:34.094Z,0
2022-10-17T00:09:34.088Z,0
2022-10-17T00:10:34.641Z,0
2022-10-17T00:11:34.076Z,0
2022-10-17T00:12:34.072Z,0
2022-10-17T00:13:35.452Z,0
2022-10-17T00:14:34.050Z,0
2022-10-17T00:15:34.306Z,0
2022-10-17T00:16:34.541Z,0
2022-10-17T00:17:35.072Z,0
2022-10-17T00:18:34.021Z,0
2022-10-17T00:19:34.577Z,0
2022-10-17T00:20:34.282Z,0
2022-10-17T00:21:34.279Z,0
2022-10-17T00:23:34.492Z,0
2022-10-17T00:24:34.232Z,0
2022-10-17T00:25:34.215Z,0
2022-10-17T00:26:34.969Z,0
2022-10-17T00:27:34.937Z,0
2022-10-17T00:28:34.503Z,0
2022-10-17T00:29:34.198Z,0
2022-10-17T00:30:34.179Z,0
2022-10-17T00:31:34.463Z,0
2022-10-17T00:32:34.874Z,0
2022-10-17T00:33:34.147Z,0
2022-10-17T00:34:34.144Z,0
2022-10-17T00:35:34.192Z,0
2022-10-17T00:36:34.155Z,0
2022-10-17T00:37:34.405Z,0
2022-10-17T00:38:34.131Z,0
2022-10-17T00:39:33.856Z,0
2022-10-17T00:40:33.581Z,0
2022-10-17T00:41:33.830Z,0
2022-10-17T00:42:34.670Z,0
2022-10-17T00:43:34.068Z,0
2022-10-17T00:44:33.802Z,0
2022-10-17T00:45:34.321Z,0
2022-10-17T00:46:34.048Z,0
2022-10-17T00:47:34.288Z,0
2022-10-17T00:48:33.781Z,0
2022-10-17T00:49:34.025Z,0
2022-10-17T00:50:33.500Z,0
2022-10-17T00:51:34.060Z,0
2022-10-17T00:52:35.611Z,0
2022-10-17T00:53:34.296Z,0
2022-10-17T00:54:33.749Z,0
2022-10-17T00:55:33.732Z,0
2022-10-17T00:56:33.963Z,0
2022-10-17T00:57:33.792Z,0
2022-10-17T00:58:34.209Z,0
2022-10-17T00:59:33.684Z,0
2022-10-17T01:00:33.670Z,0
2022-10-17T01:01:33.727Z,0
2022-10-17T01:02:34.833Z,0
2022-10-17T01:03:33.654Z,0
2022-10-17T01:04:33.889Z,0
2022-10-17T01:05:33.637Z,0
2022-10-17T01:06:33.883Z,0
2022-10-17T01:07:39.889Z,0
2022-10-17T01:08:34.146Z,0
2022-10-17T01:09:33.620Z,0
2022-10-17T01:10:33.893Z,0
2022-10-17T01:11:33.591Z,0
2022-10-17T01:12:34.430Z,0
2022-10-17T01:13:33.567Z,0
2022-10-17T01:14:33.564Z,0
2022-10-17T01:15:33.814Z,0
2022-10-17T01:16:33.291Z,0
2022-10-17T01:17:34.047Z,0
2022-10-17T01:18:33.534Z,0
2022-10-17T01:19:33.539Z,0
2022-10-17T01:20:33.261Z,0
2022-10-17T01:21:33.493Z,0
2022-10-17T01:22:34.684Z,0
2022-10-17T01:23:33.562Z,0
2022-10-17T01:24:33.512Z,0
2022-10-17T01:25:33.740Z,0
2022-10-17T01:26:33.467Z,0
2022-10-17T01:27:33.712Z,0
2022-10-17T01:28:34.458Z,0
2022-10-17T01:29:33.434Z,0
2022-10-17T01:30:33.698Z,0
2022-10-17T01:31:33.429Z,0
2022-10-17T01:32:34.653Z,0
2022-10-17T01:34:05.735Z,0
2022-10-17T01:34:33.139Z,0
2022-10-17T01:35:33.392Z,0
2022-10-17T01:36:33.133Z,0
2022-10-17T01:37:33.370Z,0
2022-10-17T01:38:33.896Z,0
2022-10-17T01:39:42.715Z,0
2022-10-17T01:40:33.360Z,0
2022-10-17T01:41:33.610Z,0
2022-10-17T01:42:34.977Z,0
2022-10-17T01:43:33.837Z,0
2022-10-17T01:44:33.567Z,0
2022-10-17T01:45:33.310Z,0
2022-10-17T01:46:33.295Z,0
2022-10-17T01:47:34.136Z,0
2022-10-17T01:48:33.566Z,0
2022-10-17T01:49:33.792Z,0
2022-10-17T01:50:33.273Z,0
2022-10-17T01:51:33.256Z,0
2022-10-17T01:52:33.527Z,0
2022-10-17T01:53:33.756Z,0
2022-10-17T01:54:33.481Z,0
2022-10-17T01:55:33.282Z,0
2022-10-17T01:56:33.255Z,0
2022-10-17T01:57:34.704Z,0
2022-10-17T01:58:33.466Z,0
2022-10-17T01:59:32.940Z,0
2022-10-17T02:00:33.696Z,0
2022-10-17T02:01:33.447Z,0
2022-10-17T02:02:33.157Z,0
2022-10-17T02:03:33.153Z,0
2022-10-17T02:04:33.403Z,0
2022-10-17T02:05:33.137Z,0
2022-10-17T02:06:33.641Z,0
2022-10-17T02:07:34.458Z,0
2022-10-17T02:08:33.387Z,0
2022-10-17T02:09:33.104Z,0
2022-10-17T02:10:33.087Z,0
2022-10-17T02:11:33.651Z,0
2022-10-17T02:12:33.375Z,0
2022-10-17T02:13:33.358Z,0
2022-10-17T02:14:33.069Z,0
2022-10-17T02:15:33.307Z,0
2022-10-17T02:16:33.046Z,0
2022-10-17T02:17:34.278Z,0
2022-10-17T02:18:33.021Z,0
2022-10-17T02:19:33.274Z,0
2022-10-17T02:20:32.755Z,0
2022-10-17T02:21:33.520Z,0
2022-10-17T02:22:33.500Z,0
2022-10-17T02:23:33.650Z,0
2022-10-17T02:24:32.725Z,0
2022-10-17T02:25:32.964Z,0
2022-10-17T02:26:32.956Z,0
2022-10-17T02:27:34.755Z,0
2022-10-17T02:28:33.468Z,0
2022-10-17T02:29:33.216Z,0
2022-10-17T02:30:33.175Z,0
2022-10-17T02:31:33.183Z,0
2022-10-17T02:32:32.669Z,0
2022-10-17T02:33:33.154Z,0
2022-10-17T02:34:33.140Z,0
2022-10-17T02:35:32.881Z,0
2022-10-17T02:36:33.139Z,0
2022-10-17T02:37:34.234Z,0
2022-10-17T02:38:32.592Z,0
2022-10-17T02:39:32.837Z,0
2022-10-17T02:40:33.099Z,0
2022-10-17T02:41:34.167Z,0
2022-10-17T02:42:34.555Z,0
2022-10-17T02:43:33.117Z,0
2022-10-17T02:44:33.097Z,0
2022-10-17T02:45:33.084Z,0
2022-10-17T02:46:33.298Z,0
2022-10-17T02:47:33.027Z,0
2022-10-17T02:48:33.026Z,0
2022-10-17T02:49:33.022Z,0
2022-10-17T02:50:32.859Z,0
2022-10-17T02:51:32.996Z,0
2022-10-17T02:52:34.096Z,0
2022-10-17T02:53:32.987Z,0
2022-10-17T02:54:32.978Z,0
2022-10-17T02:55:32.958Z,0
2022-10-17T02:56:32.958Z,0
2022-10-17T02:57:32.698Z,0
2022-10-17T02:58:32.695Z,0
2022-10-17T03:00:32.937Z,0
2022-10-17T03:01:33.374Z,0
2022-10-17T03:02:33.903Z,0
2022-10-17T03:03:32.894Z,0
2022-10-17T03:04:32.881Z,0
2022-10-17T03:05:32.633Z,0
2022-10-17T03:06:32.629Z,0
2022-10-17T03:07:32.853Z,0
2022-10-17T03:08:33.437Z,0
2022-10-17T03:09:32.332Z,0
2022-10-17T03:10:32.835Z,0
2022-10-17T03:11:32.570Z,0
2022-10-17T03:12:33.086Z,0
2022-10-17T03:13:33.939Z,0
2022-10-17T03:14:32.547Z,0
2022-10-17T03:15:32.842Z,0
2022-10-17T03:16:33.057Z,0
2022-10-17T03:17:32.854Z,0
2022-10-17T03:18:32.784Z,0
2022-10-17T03:19:32.752Z,0
2022-10-17T03:20:32.746Z,0
2022-10-17T03:21:32.484Z,0
2022-10-17T03:22:33.866Z,0
2022-10-17T03:23:32.978Z,0
2022-10-17T03:24:32.976Z,0
2022-10-17T03:25:32.709Z,0
2022-10-17T03:26:32.522Z,0
2022-10-17T03:27:33.674Z,0
2022-10-17T03:28:32.890Z,0
2022-10-17T03:29:32.676Z,0
2022-10-17T03:30:32.686Z,0
2022-10-17T03:31:32.964Z,0
2022-10-17T03:32:32.671Z,0
2022-10-17T03:49:41.319Z,0
2022-10-17T03:50:41.198Z,0
2022-10-17T03:51:40.669Z,0
2022-10-17T03:52:41.173Z,0
2022-10-17T03:53:40.662Z,0
2022-10-17T03:54:40.896Z,0
2022-10-17T03:55:41.143Z,0
2022-10-17T03:56:40.869Z,0
2022-10-17T03:57:45.376Z,0
2022-10-17T03:58:40.862Z,0
2022-10-17T03:59:40.323Z,0
2022-10-17T04:00:40.575Z,0
2022-10-17T04:01:41.033Z,0
2022-10-17T04:02:40.815Z,0
2022-10-17T04:03:40.805Z,0
2022-10-17T04:04:41.042Z,0
2022-10-17T04:05:41.139Z,0
2022-10-17T04:06:40.768Z,0
2022-10-17T04:07:41.020Z,0
2022-10-17T04:08:40.719Z,0
2022-10-17T04:09:40.967Z,0
2022-10-17T04:10:40.968Z,0
2022-10-17T04:11:40.958Z,0
2022-10-17T04:12:40.791Z,0
2022-10-17T04:13:40.689Z,0
2022-10-17T04:14:40.928Z,0
2022-10-17T04:15:41.173Z,0
2022-10-17T04:16:41.166Z,0
2022-10-17T04:17:45.108Z,0
2022-10-17T04:18:40.888Z,0
2022-10-17T04:19:40.624Z,0
2022-10-17T04:20:41.130Z,0
2022-10-17T04:21:41.670Z,0
2022-10-17T04:22:40.410Z,0
2022-10-17T04:23:41.095Z,0
2022-10-17T04:24:40.582Z,0
2022-10-17T04:25:43.669Z,0
2022-10-17T04:26:40.809Z,0
2022-10-17T04:27:40.808Z,0
2022-10-17T04:28:41.184Z,0
2022-10-17T04:29:40.798Z,0
2022-10-17T04:30:45.465Z,0
2022-10-17T04:31:40.774Z,0
2022-10-17T04:32:40.771Z,0
2022-10-17T04:33:40.754Z,0
2022-10-17T04:34:40.745Z,0
2022-10-17T04:35:40.739Z,0
2022-10-17T04:36:40.727Z,0
2022-10-17T04:37:41.082Z,0
2022-10-17T04:38:40.458Z,0
2022-10-17T04:39:40.690Z,0
2022-10-17T04:40:40.695Z,0
2022-10-17T04:41:40.942Z,0
2022-10-17T04:42:40.428Z,0
2022-10-17T04:43:40.664Z,0
2022-10-17T04:44:40.660Z,0
2022-10-17T04:45:40.905Z,0
2022-10-17T04:46:40.510Z,0
2022-10-17T04:47:40.973Z,0
2022-10-17T04:48:40.948Z,0
2022-10-17T04:50:40.683Z,0
2022-10-17T04:51:40.409Z,0
2022-10-17T04:52:40.911Z,0
2022-10-17T04:53:40.997Z,0
2022-10-17T04:54:40.643Z,0
2022-10-17T04:55:40.372Z,0
2022-10-17T04:56:40.363Z,0
2022-10-17T04:57:40.865Z,0
2022-10-17T04:58:40.099Z,0
2022-10-17T04:59:40.593Z,0
2022-10-17T05:00:40.391Z,0
2022-10-17T05:01:40.589Z,0
2022-10-17T05:02:40.572Z,0
2022-10-17T05:03:40.887Z,0
2022-10-17T05:04:40.300Z,0
2022-10-17T05:05:40.535Z,4
2022-10-17T05:06:40.830Z,4
2022-10-17T05:07:40.527Z,0
2022-10-17T05:08:40.263Z,4
2022-10-17T05:09:40.886Z,4
2022-10-17T05:10:40.827Z,4
2022-10-17T05:11:40.249Z,4
2022-10-17T05:12:40.480Z,4
2022-10-17T05:13:40.223Z,4
2022-10-17T05:14:40.214Z,8
2022-10-17T05:15:40.192Z,8
2022-10-17T05:16:39.929Z,12
2022-10-17T05:17:40.693Z,12
2022-10-17T05:18:40.432Z,16
2022-10-17T05:19:40.421Z,20
2022-10-17T05:20:40.165Z,20
2022-10-17T05:21:40.395Z,28
2022-10-17T05:22:46.688Z,32
2022-10-17T05:23:40.633Z,36
2022-10-17T05:24:40.370Z,40
2022-10-17T05:25:40.831Z,48
2022-10-17T05:26:39.844Z,52
2022-10-17T05:27:40.614Z,60
2022-10-17T05:28:40.292Z,68
2022-10-17T05:29:40.071Z,76
2022-10-17T05:30:43.989Z,84
2022-10-17T05:31:40.586Z,92
2022-10-17T05:32:40.051Z,104
2022-10-17T05:33:40.546Z,112
2022-10-17T05:34:39.800Z,120
2022-10-17T05:35:39.762Z,136
2022-10-17T05:36:40.260Z,148
2022-10-17T05:37:40.259Z,164
2022-10-17T05:38:40.511Z,176
2022-10-17T05:39:40.501Z,196
2022-10-17T05:40:39.981Z,212
2022-10-17T05:41:40.573Z,228
2022-10-17T05:42:40.844Z,248
2022-10-17T05:43:39.696Z,260
2022-10-17T05:44:40.205Z,284
2022-10-17T05:45:39.935Z,304
2022-10-17T05:46:39.978Z,320
2022-10-17T05:47:40.137Z,344
2022-10-17T05:48:39.663Z,368
2022-10-17T05:49:57.054Z,404
2022-10-17T05:50:39.884Z,424
2022-10-17T05:52:41.946Z,464
2022-10-17T05:53:39.862Z,492
2022-10-17T05:54:39.859Z,516
2022-10-17T05:55:39.844Z,536
2022-10-17T05:56:40.352Z,552
2022-10-17T05:57:40.455Z,580
2022-10-17T05:59:03.572Z,628
2022-10-17T05:59:39.810Z,648
2022-10-17T06:00:40.366Z,680
2022-10-17T06:01:40.093Z,712
2022-10-17T06:02:40.336Z,744
2022-10-17T06:03:39.787Z,780
2022-10-17T06:04:39.507Z,820
2022-10-17T06:05:39.754Z,852
2022-10-17T06:06:40.012Z,884
2022-10-17T06:07:40.050Z,920
2022-10-17T06:08:40.236Z,956
2022-10-17T06:09:40.441Z,996
2022-10-17T06:10:39.715Z,1028
2022-10-17T06:11:40.220Z,1064
2022-10-17T06:12:39.701Z,1100
2022-10-17T06:13:40.294Z,1144
2022-10-17T06:14:39.926Z,1176
2022-10-17T06:15:39.411Z,1220
2022-10-17T06:16:39.711Z,1256
2022-10-17T06:17:39.910Z,1292
2022-10-17T06:18:39.918Z,1332
2022-10-17T06:19:39.892Z,1368
2022-10-17T06:20:43.875Z,1412
2022-10-17T06:21:39.353Z,1448
2022-10-17T06:22:39.349Z,1480
2022-10-17T06:23:39.855Z,1516
2022-10-17T06:24:39.859Z,1556
2022-10-17T06:25:39.834Z,1596
2022-10-17T06:26:39.563Z,1644
2022-10-17T06:27:40.114Z,1696
2022-10-17T06:28:40.167Z,1744
2022-10-17T06:29:40.167Z,1784
2022-10-17T06:30:39.534Z,1824
2022-10-17T06:31:39.274Z,1864
2022-10-17T06:32:39.543Z,1896
2022-10-17T06:33:40.031Z,1924
2022-10-17T06:34:39.496Z,1952
2022-10-17T06:35:39.487Z,1976
2022-10-17T06:36:39.732Z,2000
2022-10-17T06:37:44.379Z,2008
2022-10-17T06:38:39.723Z,2016
2022-10-17T06:39:39.464Z,2036
2022-10-17T06:40:39.713Z,2028
2022-10-17T06:41:39.451Z,2036
2022-10-17T06:42:39.443Z,2068
2022-10-17T06:43:39.674Z,2096
2022-10-17T06:44:39.157Z,2120
2022-10-17T06:45:40.022Z,2148
2022-10-17T06:46:39.398Z,2176
2022-10-17T06:47:40.205Z,2204
2022-10-17T06:48:39.393Z,2224
2022-10-17T06:49:39.377Z,2248
2022-10-17T06:50:39.878Z,2272
2022-10-17T06:51:39.621Z,2300
2022-10-17T06:52:39.872Z,2332
2022-10-17T06:53:39.849Z,2344
2022-10-17T06:54:39.337Z,2348
2022-10-17T06:55:39.583Z,2384
2022-10-17T06:56:39.341Z,2424
2022-10-17T06:57:39.465Z,2476
2022-10-17T06:58:39.297Z,2524
2022-10-17T06:59:39.295Z,2564
2022-10-17T07:00:40.065Z,2600
2022-10-17T07:01:41.781Z,2640
2022-10-17T07:02:39.920Z,2692
2022-10-17T07:03:39.506Z,2740
2022-10-17T07:04:39.764Z,2796
2022-10-17T07:05:39.252Z,2848
2022-10-17T07:06:39.488Z,2876
2022-10-17T07:07:44.750Z,2912
2022-10-17T07:08:39.728Z,2936
2022-10-17T07:09:39.217Z,2992
2022-10-17T07:10:39.459Z,3052
2022-10-17T07:11:39.449Z,3120
2022-10-17T07:12:39.452Z,3176
2022-10-17T07:13:45.035Z,3228
2022-10-17T07:14:39.684Z,3288
2022-10-17T07:15:39.418Z,3352
2022-10-17T07:16:39.421Z,3416
2022-10-17T07:17:40.024Z,3444
2022-10-17T07:18:39.650Z,3464
2022-10-17T07:19:39.397Z,3488
2022-10-17T07:20:39.133Z,3508
2022-10-17T07:21:44.330Z,3508
2022-10-17T07:22:39.372Z,3492
2022-10-17T07:23:38.851Z,3464
2022-10-17T07:24:39.684Z,3428
2022-10-17T07:25:44.796Z,3376
2022-10-17T07:26:39.626Z,3332
2022-10-17T07:27:39.129Z,3280
2022-10-17T07:28:39.317Z,3216
2022-10-17T07:29:39.583Z,3172
2022-10-17T07:30:39.311Z,3148
2022-10-17T07:31:39.572Z,3120
2022-10-17T07:32:39.562Z,3092
2022-10-17T07:33:39.864Z,3068
2022-10-17T07:34:39.370Z,3044
2022-10-17T07:35:39.281Z,3028
2022-10-17T07:36:39.638Z,3040
2022-10-17T07:37:39.403Z,3052
2022-10-17T07:38:39.254Z,3068
2022-10-17T07:39:38.995Z,3092
2022-10-17T07:40:39.508Z,3092
2022-10-17T07:41:39.496Z,3076
2022-10-17T07:43:38.980Z,3084
2022-10-17T07:44:38.952Z,3048
2022-10-17T07:45:38.699Z,2988
2022-10-17T07:46:39.255Z,2956
2022-10-17T07:47:39.479Z,2944
2022-10-17T07:48:39.450Z,2904
2022-10-17T07:49:39.561Z,2896
2022-10-17T07:50:39.197Z,2892
2022-10-17T07:51:39.129Z,2868
2022-10-17T07:52:39.621Z,2824
2022-10-17T07:53:38.907Z,2756
2022-10-17T07:54:39.149Z,2692
2022-10-17T07:55:39.171Z,2628
2022-10-17T07:56:38.981Z,2620
2022-10-17T07:57:39.385Z,2620
2022-10-17T07:58:39.127Z,2608
2022-10-17T07:59:39.123Z,2564
2022-10-17T08:00:39.640Z,2540
2022-10-17T08:01:38.875Z,2540
2022-10-17T08:02:39.394Z,2532
2022-10-17T08:03:39.116Z,2560
2022-10-17T08:04:39.356Z,2580
2022-10-17T08:05:39.470Z,2572
2022-10-17T08:06:38.891Z,2528
2022-10-17T08:07:38.817Z,2480
2022-10-17T08:08:39.356Z,2416
2022-10-17T08:09:38.815Z,2352
2022-10-17T08:10:39.346Z,2292
2022-10-17T08:11:39.032Z,2228
2022-10-17T08:12:39.634Z,2200
2022-10-17T08:13:39.022Z,2172
2022-10-17T08:14:38.773Z,2156
2022-10-17T08:15:39.444Z,2120
2022-10-17T08:16:39.270Z,2080
2022-10-17T08:17:39.003Z,2024
2022-10-17T08:18:39.008Z,1964
2022-10-17T08:19:39.250Z,1912
2022-10-17T08:20:39.241Z,1868
2022-10-17T08:21:39.347Z,1852
2022-10-17T08:22:39.520Z,1824
2022-10-17T08:23:39.224Z,1828
2022-10-17T08:24:38.957Z,1824
2022-10-17T08:25:39.255Z,1808
2022-10-17T08:26:47.183Z,1792
2022-10-17T08:27:38.934Z,1776
2022-10-17T08:28:39.531Z,1776
2022-10-17T08:29:39.191Z,1772
2022-10-17T08:30:38.921Z,1776
2022-10-17T08:31:38.935Z,1776
2022-10-17T08:32:39.448Z,1776
2022-10-17T08:33:38.681Z,1780
2022-10-17T08:34:39.298Z,1784
2022-10-17T08:35:39.140Z,1792
2022-10-17T08:36:38.725Z,1800
2022-10-17T08:37:39.868Z,1800
2022-10-17T08:38:53.220Z,1800
2022-10-17T08:39:38.855Z,1796
2022-10-17T08:40:38.601Z,1800
2022-10-17T08:41:38.598Z,1800
2022-10-17T08:42:38.611Z,1808
2022-10-17T08:43:41.906Z,1812
2022-10-17T08:44:38.573Z,1820
2022-10-17T08:45:39.078Z,1824
2022-10-17T08:46:38.945Z,1832
2022-10-17T08:47:39.482Z,1836
2022-10-17T08:48:40.749Z,1848
2022-10-17T08:49:38.802Z,1852
2022-10-17T08:50:38.541Z,1856
2022-10-17T08:51:38.784Z,1864
2022-10-17T08:52:38.780Z,1872
2022-10-17T08:53:39.146Z,1880
2022-10-17T08:54:38.795Z,1884
2022-10-17T08:55:42.772Z,1888
2022-10-17T08:57:08.746Z,1900
2022-10-17T08:57:39.528Z,1904
2022-10-17T08:58:38.495Z,1900
2022-10-17T08:59:38.521Z,1904
2022-10-17T09:00:38.220Z,1904
2022-10-17T09:01:38.734Z,1900
2022-10-17T09:02:38.808Z,1892
2022-10-17T09:03:38.845Z,1884
2022-10-17T09:04:38.719Z,1880
2022-10-17T09:05:38.700Z,1876
2022-10-17T09:06:38.717Z,1872
2022-10-17T09:07:39.517Z,1864
2022-10-17T09:08:38.943Z,1856
2022-10-17T09:09:39.048Z,1848
2022-10-17T09:10:38.934Z,1844
2022-10-17T09:11:38.678Z,1840
2022-10-17T09:12:38.755Z,1832
2022-10-17T09:13:38.384Z,1836
2022-10-17T09:14:38.401Z,1840
2022-10-17T09:15:38.397Z,1840
2022-10-17T09:16:39.112Z,1840
2022-10-17T09:17:38.968Z,1848
2022-10-17T09:18:38.631Z,1856
2022-10-17T09:19:38.897Z,1856
2022-10-17T09:20:38.366Z,1860
2022-10-17T09:21:38.628Z,1864
2022-10-17T09:22:38.363Z,1876
2022-10-17T09:23:43.900Z,1888
2022-10-17T09:24:38.593Z,1896
2022-10-17T09:25:38.965Z,1908
2022-10-17T09:26:38.953Z,1916
2022-10-17T09:27:39.206Z,1920
2022-10-17T09:28:38.872Z,1908
2022-10-17T09:29:48.734Z,1908
2022-10-17T09:30:53.896Z,1908
2022-10-17T09:31:38.079Z,1892
2022-10-17T09:32:38.921Z,1884
2022-10-17T09:34:00.320Z,1872
2022-10-17T09:34:38.292Z,1880
2022-10-17T09:35:38.299Z,1876
2022-10-17T09:36:38.576Z,1876
2022-10-17T09:37:38.536Z,1884
2022-10-17T09:38:38.786Z,1892
2022-10-17T09:39:38.291Z,1896
2022-10-17T09:40:38.521Z,1896
2022-10-17T09:41:52.747Z,1896
2022-10-17T09:42:39.446Z,1900
2022-10-17T09:43:39.370Z,1896
2022-10-17T09:44:39.354Z,1904
2022-10-17T09:45:39.093Z,1912
2022-10-17T09:46:39.204Z,1900
2022-10-17T09:47:38.589Z,1908
2022-10-17T09:48:39.085Z,1920
2022-10-17T09:49:38.824Z,1920
2022-10-17T09:50:38.821Z,1932
2022-10-17T09:51:38.855Z,1948
2022-10-17T09:52:39.862Z,1968
2022-10-17T09:53:39.303Z,1980
2022-10-17T09:54:39.307Z,1988
2022-10-17T09:55:39.305Z,2000
2022-10-17T09:56:38.943Z,2012
2022-10-17T09:57:39.385Z,2016
2022-10-17T09:58:39.300Z,2032
2022-10-17T09:59:39.036Z,2048
2022-10-17T10:00:39.605Z,2068
2022-10-17T10:01:39.039Z,2096
2022-10-17T10:02:39.751Z,2096
2022-10-17T10:03:39.007Z,2084
2022-10-17T10:05:09.822Z,2064
2022-10-17T10:05:39.007Z,2064
2022-10-17T10:06:39.355Z,2052
2022-10-17T10:07:39.007Z,2044
2022-10-17T10:08:39.274Z,2052
2022-10-17T10:09:44.022Z,2048
2022-10-17T10:10:38.982Z,2044
2022-10-17T10:11:38.732Z,2044
2022-10-17T10:12:39.476Z,2028
2022-10-17T10:13:39.415Z,2020
2022-10-17T10:14:38.971Z,2028
2022-10-17T10:15:39.014Z,2024
2022-10-17T10:16:39.050Z,2028
2022-10-17T10:17:38.758Z,2024
2022-10-17T10:18:38.882Z,2020
2022-10-17T10:19:38.953Z,2016
2022-10-17T10:20:38.956Z,2008
2022-10-17T10:21:46.450Z,2000
2022-10-17T10:22:39.434Z,1992
2022-10-17T10:23:38.686Z,1988
2022-10-17T10:24:39.192Z,1988
2022-10-17T10:25:38.960Z,1976
2022-10-17T10:26:38.925Z,1960
2022-10-17T10:27:39.714Z,1952
2022-10-17T10:28:39.252Z,1940
2022-10-17T10:29:39.274Z,1908
2022-10-17T10:30:44.929Z,1904
2022-10-17T10:31:38.970Z,1904
2022-10-17T10:32:39.565Z,1900
2022-10-17T10:33:45.873Z,1904
2022-10-17T10:34:38.935Z,1916
2022-10-17T10:35:38.907Z,1904
2022-10-17T10:36:39.080Z,1916
2022-10-17T10:37:39.653Z,1940
2022-10-17T10:38:38.640Z,1932
2022-10-17T10:39:39.161Z,1908
2022-10-17T10:40:39.136Z,1916
2022-10-17T10:41:38.629Z,1912
2022-10-17T10:42:38.886Z,1912
2022-10-17T10:43:38.622Z,1900
2022-10-17T10:44:38.875Z,1900
2022-10-17T10:45:56.312Z,1948
2022-10-17T10:46:39.127Z,1964
2022-10-17T10:47:39.322Z,1948
2022-10-17T10:48:38.866Z,1940
2022-10-17T10:49:38.876Z,1940
2022-10-17T10:50:41.757Z,1940
2022-10-17T10:51:39.655Z,1932
2022-10-17T10:52:38.349Z,1908
2022-10-17T10:53:42.819Z,1908
2022-10-17T10:55:38.852Z,1896
2022-10-17T10:56:38.849Z,1884
2022-10-17T10:57:39.180Z,1844
2022-10-17T10:58:44.453Z,1816
2022-10-17T10:59:38.843Z,1780
2022-10-17T11:00:39.187Z,1820
2022-10-17T11:01:39.181Z,1816
2022-10-17T11:02:38.843Z,1844
2022-10-17T11:03:38.829Z,1856
2022-10-17T11:04:39.106Z,1896
2022-10-17T11:05:38.817Z,1892
2022-10-17T11:06:38.560Z,1944
2022-10-17T11:07:39.648Z,1968
2022-10-17T11:08:38.813Z,1988
2022-10-17T11:09:40.286Z,1996
2022-10-17T11:10:38.558Z,1996
2022-10-17T11:11:38.816Z,1976
2022-10-17T11:12:38.793Z,1964
2022-10-17T11:13:38.800Z,1960
2022-10-17T11:14:38.828Z,1940
2022-10-17T11:15:39.058Z,1928
2022-10-17T11:16:39.047Z,1956
2022-10-17T11:17:39.865Z,1964
2022-10-17T11:18:39.045Z,1984
2022-10-17T11:19:38.799Z,2000
2022-10-17T11:20:39.125Z,2008
2022-10-17T11:21:38.784Z,2004
2022-10-17T11:22:41.012Z,2000
2022-10-17T11:23:38.533Z,1972
2022-10-17T11:24:38.864Z,1956
2022-10-17T11:25:38.772Z,1952
2022-10-17T11:26:39.046Z,1936
2022-10-17T11:27:38.790Z,1964
2022-10-17T11:28:38.837Z,1972
2022-10-17T11:29:39.026Z,1980
2022-10-17T11:30:39.307Z,1988
2022-10-17T11:31:38.783Z,1976
2022-10-17T11:32:39.014Z,1976
2022-10-17T11:33:39.106Z,1960
2022-10-17T11:34:38.504Z,1980
2022-10-17T11:35:38.250Z,1968
2022-10-17T11:36:38.502Z,1964
2022-10-17T11:37:40.621Z,1940
2022-10-17T11:38:38.495Z,1864
2022-10-17T11:39:38.924Z,1916
2022-10-17T11:40:39.035Z,1904
2022-10-17T11:41:38.999Z,1888
2022-10-17T11:42:39.081Z,1900
2022-10-17T11:43:38.738Z,1896
2022-10-17T11:44:38.790Z,1896
2022-10-17T11:45:38.740Z,1872
2022-10-17T11:46:38.479Z,1860
2022-10-17T11:47:38.987Z,1884
2022-10-17T11:48:38.496Z,1884
2022-10-17T11:49:50.793Z,1880
2022-10-17T11:52:08.466Z,1852
2022-10-17T11:52:57.201Z,1828
2022-10-17T11:53:18.539Z,1840
2022-10-17T11:54:18.362Z,1884
2022-10-17T11:55:18.403Z,1912
2022-10-17T11:56:18.266Z,1928
2022-10-17T11:57:21.418Z,1928
2022-10-17T11:58:18.242Z,1900
2022-10-17T11:59:18.264Z,1896
2022-10-17T12:00:18.520Z,1876
2022-10-17T12:01:17.997Z,1896
2022-10-17T12:02:18.001Z,1836
2022-10-17T12:03:18.003Z,1856
2022-10-17T12:04:18.548Z,1864
2022-10-17T12:05:18.621Z,1864
2022-10-17T12:06:17.987Z,1844
2022-10-17T12:07:18.566Z,1800
2022-10-17T12:08:17.990Z,1768
2022-10-17T12:09:18.510Z,1792
2022-10-17T12:10:17.733Z,1796
2022-10-17T12:11:18.307Z,1824
2022-10-17T12:12:18.502Z,1872
2022-10-17T12:13:18.239Z,1916
2022-10-17T12:14:17.977Z,1936
2022-10-17T12:15:18.235Z,1988
2022-10-17T12:16:22.625Z,1984
2022-10-17T12:17:18.293Z,1964
2022-10-17T12:18:18.869Z,2012
2022-10-17T12:19:17.970Z,2096
2022-10-17T12:20:17.962Z,2088
2022-10-17T12:21:18.606Z,2116
2022-10-17T12:22:17.967Z,2120
2022-10-17T12:23:18.470Z,2144
2022-10-17T12:24:23.441Z,2144
2022-10-17T12:25:18.475Z,2156
2022-10-17T12:26:17.960Z,2176
2022-10-17T12:27:18.202Z,2180
2022-10-17T12:28:18.462Z,2176
2022-10-17T12:29:18.198Z,2180
2022-10-17T12:30:18.479Z,2172
2022-10-17T12:31:18.209Z,2160
2022-10-17T12:32:18.193Z,2188
2022-10-17T12:33:18.449Z,2192
2022-10-17T12:34:18.204Z,2204
2022-10-17T12:35:18.194Z,2200
2022-10-17T12:36:18.191Z,2212
2022-10-17T12:37:18.627Z,2192
2022-10-17T12:38:18.191Z,2168
2022-10-17T12:39:17.933Z,2192
2022-10-17T12:40:18.433Z,2216
2022-10-17T12:41:18.560Z,2208
2022-10-17T12:42:18.210Z,2220
2022-10-17T12:43:17.722Z,2228
2022-10-17T12:44:19.197Z,2232
2022-10-17T12:45:18.181Z,2264
2022-10-17T12:46:17.913Z,2300
2022-10-17T12:47:18.882Z,2332
2022-10-17T12:48:18.414Z,2392
2022-10-17T12:49:18.168Z,2468
2022-10-17T12:50:17.915Z,2520
2022-10-17T12:51:42.402Z,2600
2022-10-17T12:52:18.157Z,2640
2022-10-17T12:53:24.202Z,2720
2022-10-17T12:54:17.644Z,2792
2022-10-17T12:55:20.403Z,2872
2022-10-17T12:56:17.890Z,2956
2022-10-17T12:57:18.500Z,2972
2022-10-17T12:58:18.416Z,3016
2022-10-17T12:59:18.136Z,3188
2022-10-17T13:00:18.399Z,3312
2022-10-17T13:01:31.226Z,3332
2022-10-17T13:02:18.166Z,3456
2022-10-17T13:03:18.133Z,3664
2022-10-17T13:04:18.126Z,3780
2022-10-17T13:05:17.631Z,3916
2022-10-17T13:06:18.146Z,4048
2022-10-17T13:07:18.385Z,4200
2022-10-17T13:08:18.119Z,4304
2022-10-17T13:09:18.501Z,4436
2022-10-17T13:10:21.704Z,4536
2022-10-17T13:11:17.860Z,4616
2022-10-17T13:12:17.849Z,4696
2022-10-17T13:13:18.656Z,4736
2022-10-17T13:14:19.566Z,4860
2022-10-17T13:15:18.204Z,4996
2022-10-17T13:16:18.639Z,5064
2022-10-17T13:17:18.817Z,5164
2022-10-17T13:18:18.652Z,5232
2022-10-17T13:19:18.647Z,5276
2022-10-17T13:20:22.076Z,5332
2022-10-17T13:21:18.382Z,5320
2022-10-17T13:22:18.382Z,5300
2022-10-17T13:23:18.387Z,5276
2022-10-17T13:24:18.941Z,5236
2022-10-17T13:25:18.993Z,5216
2022-10-17T13:26:18.624Z,5144
2022-10-17T13:27:19.185Z,5092
2022-10-17T13:28:18.381Z,4900
2022-10-17T13:29:18.713Z,4816
2022-10-17T13:30:19.081Z,4640
2022-10-17T13:31:18.629Z,4472
2022-10-17T13:32:18.885Z,4328
2022-10-17T13:33:18.633Z,4180
2022-10-17T13:34:18.618Z,4028
2022-10-17T13:35:18.367Z,3876
2022-10-17T13:36:18.891Z,3748
2022-10-17T13:37:18.933Z,3600
2022-10-17T13:39:38.628Z,3336
2022-10-17T13:41:30.392Z,3192
2022-10-17T13:41:44.966Z,3124
2022-10-17T13:42:44.702Z,3016
2022-10-17T13:43:44.437Z,2908
2022-10-17T13:44:48.208Z,2832
2022-10-17T13:45:44.939Z,2772
2022-10-17T13:46:46.183Z,2704
2022-10-17T13:47:44.431Z,2628
2022-10-17T13:48:44.674Z,2576
2022-10-17T13:49:44.973Z,2548
2022-10-17T13:50:51.890Z,2472
2022-10-17T13:51:44.692Z,2436
2022-10-17T13:52:44.421Z,2408
2022-10-17T13:53:44.921Z,2400
2022-10-17T13:54:44.783Z,2392
2022-10-17T13:55:44.413Z,2412
2022-10-17T13:56:45.153Z,2424
2022-10-17T13:57:44.696Z,2424
2022-10-17T13:58:44.402Z,2444
2022-10-17T13:59:44.412Z,2500
2022-10-17T14:00:44.904Z,2560
2022-10-17T14:01:44.655Z,2616
2022-10-17T14:02:45.121Z,2680
2022-10-17T14:04:21.559Z,2788
2022-10-17T14:05:27.119Z,2852
2022-10-17T14:05:44.529Z,2872
2022-10-17T14:06:49.546Z,2916
2022-10-17T14:08:25.550Z,3000
2022-10-17T14:08:44.383Z,3008
2022-10-17T14:09:44.899Z,3024
2022-10-17T14:10:44.418Z,2996
2022-10-17T14:11:44.639Z,2932
2022-10-17T14:12:47.182Z,2840
2022-10-17T14:13:44.945Z,2748
2022-10-17T14:15:15.927Z,2624
2022-10-17T14:15:44.632Z,2592